American Star — WDD7311 — position and weather

sailwx.info

Track history (hours):
 
Tides and Currents Weather Stations Pressure Air Temp Water Temp Dewpoint Dewpoint Depression Visibility Wind Speed Wind Dir Waves Ship Positions

American Star

Owner: American Cruise Lines, Inc, Delmar, DE. More information available from US FCC via Universal Licensing System and Coast Guard Vessel Documentation Center.

Last reported at 2014-Sep-28 19:31 UTC. Time now 2014-Oct-02 06:39 UTC.
Position N 40°53' W 073°56'.

Length 60 m; draft 2.1 m.

Type: Ship (hazmat cat C). MMSI: 367184740.

Date/timePositionNaut miles runAvg speedWind from/ knotsBaromVisibWave heightAir tempDewpointWater temp
2014-Sep-28 19:31N 40°53' W 073°56'1111.2
2014-Sep-28 18:33N 40°44' W 074°01'1 0.4
2014-Sep-28 15:21N 40°45' W 074°01'0 0.0
2014-Sep-28 14:33N 40°45' W 074°01'0 0.0
2014-Sep-28 13:33N 40°45' W 074°01'0 0.0
2014-Sep-28 12:33N 40°45' W 074°01'0 0.0
2014-Sep-28 11:30N 40°45' W 074°01'0 0.0
2014-Sep-28 10:33N 40°45' W 074°01'0 0.0
2014-Sep-28 09:33N 40°45' W 074°01'0 0.0
2014-Sep-28 08:33N 40°45' W 074°01'0 0.0
2014-Sep-28 07:33N 40°45' W 074°01'0 0.0
2014-Sep-28 06:33N 40°45' W 074°01'0 0.0
2014-Sep-28 04:33N 40°45' W 074°01'3 2.6
2014-Sep-28 03:33N 40°45' W 073°57'7 7.1
2014-Sep-28 02:33N 40°48' W 073°49'9 8.9
2014-Sep-28 01:33N 40°54' W 073°40'1010.1
2014-Sep-28 00:33N 40°58' W 073°28'1010.1
2014-Sep-27 23:33N 41°01' W 073°15'1110.6
2014-Sep-27 22:33N 41°03' W 073°01'1010.5
2014-Sep-27 21:33N 41°06' W 072°48'1010.0
2014-Sep-27 20:33N 41°09' W 072°35'9 9.3
2014-Sep-27 19:33N 41°11' W 072°23'10 9.9
2014-Sep-27 18:33N 41°13' W 072°10'1111.0
2014-Sep-27 17:33N 41°15' W 071°56'1211.7
2014-Sep-27 16:33N 41°17' W 071°40'1111.4
2014-Sep-27 15:33N 41°22' W 071°27'1110.9
2014-Sep-27 14:33N 41°32' W 071°20'1010.5
2014-Sep-27 13:33N 41°42' W 071°20'7 6.8
2014-Sep-27 12:29N 41°49' W 071°24'0 0.0
2014-Sep-27 11:20N 41°49' W 071°24'0 0.0
2014-Sep-27 10:29N 41°49' W 071°24'0 0.0
2014-Sep-27 09:29N 41°49' W 071°24'0 0.0
2014-Sep-27 08:23N 41°49' W 071°24'0 0.0
2014-Sep-27 07:32N 41°49' W 071°24'0 0.0
2014-Sep-27 06:29N 41°49' W 071°24'0 0.0
2014-Sep-27 05:32N 41°49' W 071°24'0 0.0
2014-Sep-27 04:23N 41°49' W 071°24'0 0.0
2014-Sep-27 03:32N 41°49' W 071°24'0 0.0
2014-Sep-27 02:17N 41°49' W 071°24'0 0.0
2014-Sep-26 23:26N 41°49' W 071°24'0 0.0
2014-Sep-26 22:32N 41°49' W 071°24'0 0.0
2014-Sep-26 18:17N 41°49' W 071°24'3 3.8
2014-Sep-26 17:33N 41°46' W 071°22'7 6.6
2014-Sep-26 16:33N 41°40' W 071°19'2 1.3
2014-Sep-26 15:10N 41°40' W 071°16'0 0.0
2014-Sep-26 14:31N 41°40' W 071°16'0 0.0
2014-Sep-26 13:28N 41°40' W 071°16'0 0.0
2014-Sep-26 12:31N 41°40' W 071°16'0 0.0
2014-Sep-26 11:31N 41°40' W 071°16'0 0.0
2014-Sep-26 10:31N 41°40' W 071°16'0 0.0
2014-Sep-26 09:31N 41°40' W 071°16'0 0.0
2014-Sep-26 08:31N 41°40' W 071°16'0 0.0
2014-Sep-26 07:28N 41°40' W 071°16'0 0.0
2014-Sep-26 06:31N 41°40' W 071°16'0 0.0
2014-Sep-26 05:22N 41°40' W 071°16'0 0.0
2014-Sep-26 04:31N 41°40' W 071°16'0 0.0
2014-Sep-26 02:28N 41°40' W 071°16'0 0.0
2014-Sep-26 01:31N 41°40' W 071°16'0 0.0
2014-Sep-26 00:31N 41°40' W 071°16'0 0.0
2014-Sep-25 23:25N 41°40' W 071°16'0 0.0
2014-Sep-25 22:19N 41°40' W 071°16'0 0.0
2014-Sep-25 21:28N 41°40' W 071°16'0 0.0
2014-Sep-25 20:22N 41°40' W 071°16'0 0.0
2014-Sep-25 19:31N 41°40' W 071°16'0 0.0
2014-Sep-25 18:25N 41°40' W 071°16'0 0.0
2014-Sep-25 17:19N 41°40' W 071°16'0 0.0
2014-Sep-25 16:22N 41°40' W 071°16'0 0.1
2014-Sep-25 15:33N 41°40' W 071°16'9 9.0
2014-Sep-25 14:33N 41°31' W 071°20'7 6.6
2014-Sep-25 13:33N 41°25' W 071°16'10 9.3
2014-Sep-25 12:32N 41°26' W 071°03'9 8.9
2014-Sep-25 11:32N 41°27' W 070°51'10 9.7
2014-Sep-25 10:31N 41°29' W 070°38'3 1.3
2014-Sep-25 08:21N 41°27' W 070°36'0 0.0
2014-Sep-25 07:15N 41°27' W 070°36'0 0.0
2014-Sep-25 06:30N 41°27' W 070°36'0 0.0
2014-Sep-25 05:30N 41°27' W 070°36'0 0.0
2014-Sep-25 04:33N 41°27' W 070°36'0 0.0
2014-Sep-25 03:33N 41°27' W 070°36'0 0.0
2014-Sep-25 02:30N 41°27' W 070°36'0 0.0
2014-Sep-24 03:27N 41°27' W 070°36'0 0.0
2014-Sep-24 02:33N 41°27' W 070°36'22 1.5
2014-Sep-23 11:33N 41°21' W 070°07'1010.3
2014-Sep-23 10:33N 41°27' W 070°18'1211.8
2014-Sep-23 09:30N 41°29' W 070°34'1010.6
2014-Sep-23 08:33N 41°26' W 070°47'9 8.8
2014-Sep-23 07:29N 41°35' W 070°53'0 0.0
2014-Sep-22 11:33N 41°34' W 070°52'1010.0
2014-Sep-22 10:33N 41°26' W 071°01'9 9.3
2014-Sep-22 09:33N 41°27' W 071°13'1010.3
2014-Sep-22 08:33N 41°37' W 071°13'6 6.4
2014-Sep-22 07:33N 41°33' W 071°19'5 1.5
2014-Sep-22 04:21N 41°29' W 071°20'0 0.0
2014-Sep-22 03:27N 41°29' W 071°20'0 0.0
2014-Sep-22 02:33N 41°29' W 071°20'0 0.0
2014-Sep-22 01:33N 41°29' W 071°20'0 0.0
2014-Sep-22 00:33N 41°29' W 071°20'0 0.0
2014-Sep-21 23:33N 41°29' W 071°20'0 0.0
2014-Sep-21 22:33N 41°29' W 071°20'0 0.0
2014-Sep-21 21:33N 41°29' W 071°20'0 0.0
2014-Sep-21 20:21N 41°29' W 071°20'0 0.0
2014-Sep-21 13:21N 41°29' W 071°20'0 0.0
2014-Sep-21 12:30N 41°29' W 071°20'0 0.0
2014-Sep-21 11:27N 41°29' W 071°20'0 0.0
2014-Sep-21 10:24N 41°29' W 071°20'0 0.0
2014-Sep-21 09:30N 41°29' W 071°20'0 0.0
2014-Sep-21 06:27N 41°29' W 071°20'0 0.0
2014-Sep-21 05:33N 41°29' W 071°20'0 0.0
2014-Sep-21 04:33N 41°29' W 071°20'0 0.0
2014-Sep-21 03:06N 41°29' W 071°20'0 0.0
2014-Sep-21 02:09N 41°29' W 071°20'0 0.0
2014-Sep-21 01:30N 41°29' W 071°20'0 0.0
2014-Sep-21 00:33N 41°29' W 071°20'0 0.0
2014-Sep-20 23:33N 41°29' W 071°20'0 0.0
2014-Sep-20 22:24N 41°29' W 071°20'0 0.0
2014-Sep-20 20:27N 41°29' W 071°20'0 0.0
2014-Sep-20 19:32N 41°29' W 071°20'7 6.9
2014-Sep-20 18:33N 41°35' W 071°18'9 9.5
2014-Sep-20 17:33N 41°44' W 071°22'5 1.1
2014-Sep-20 13:08N 41°49' W 071°24'0 0.0
2014-Sep-20 12:32N 41°49' W 071°24'0 0.0
2014-Sep-20 08:23N 41°49' W 071°24'0 0.0
2014-Sep-20 07:05N 41°49' W 071°24'0 0.0
2014-Sep-20 05:05N 41°49' W 071°24'0 0.0
2014-Sep-20 03:14N 41°49' W 071°24'0 0.0
2014-Sep-20 02:29N 41°49' W 071°24'0 0.0
2014-Sep-20 01:29N 41°49' W 071°24'0 0.0
2014-Sep-20 00:32N 41°49' W 071°24'0 0.0
2014-Sep-19 23:23N 41°49' W 071°24'0 0.0
2014-Sep-19 22:33N 41°49' W 071°24'9 9.1
2014-Sep-19 21:33N 41°41' W 071°19'2 1.9
2014-Sep-19 20:30N 41°40' W 071°16'0 0.0
2014-Sep-19 19:30N 41°40' W 071°16'0 0.0
2014-Sep-19 18:24N 41°40' W 071°16'0 0.0
2014-Sep-19 17:24N 41°40' W 071°16'0 0.0
2014-Sep-19 16:24N 41°40' W 071°16'0 0.0
2014-Sep-19 15:30N 41°40' W 071°16'1 1.3
2014-Sep-19 14:33N 41°39' W 071°16'10 9.9
2014-Sep-19 13:33N 41°29' W 071°20'1 0.5
2014-Sep-19 12:28N 41°29' W 071°20'0 0.0
2014-Sep-19 11:22N 41°29' W 071°20'0 0.0
2014-Sep-19 10:22N 41°29' W 071°20'0 0.0
2014-Sep-19 09:28N 41°29' W 071°20'0 0.0
2014-Sep-19 08:28N 41°29' W 071°20'0 0.0
2014-Sep-19 07:31N 41°29' W 071°20'0 0.0
2014-Sep-19 06:31N 41°29' W 071°20'0 0.0
2014-Sep-19 05:31N 41°29' W 071°20'0 0.0
2014-Sep-19 04:31N 41°29' W 071°20'0 0.0
2014-Sep-19 03:25N 41°29' W 071°20'0 0.0
2014-Sep-19 02:31N 41°29' W 071°20'0 0.0
2014-Sep-19 01:28N 41°29' W 071°20'0 0.0
2014-Sep-19 00:31N 41°29' W 071°20'0 0.0
2014-Sep-18 23:31N 41°29' W 071°20'0 0.0
2014-Sep-18 22:28N 41°29' W 071°20'0 0.0
2014-Sep-18 21:31N 41°29' W 071°20'0 0.0
2014-Sep-18 20:31N 41°29' W 071°20'0 0.0
2014-Sep-18 19:31N 41°29' W 071°20'  
Track history (hours):
 
Tides and Currents Weather Stations Pressure Air Temp Water Temp Dewpoint Dewpoint Depression Visibility Wind Speed Wind Dir Waves Ship Positions

American Star

Owner: American Cruise Lines, Inc, Delmar, DE. More information available from US FCC via Universal Licensing System and Coast Guard Vessel Documentation Center.

Last reported at 2014-Sep-28 19:31 UTC. Time now 2014-Oct-02 06:39 UTC.
Position N 40°53' W 073°56'.

Length 60 m; draft 2.1 m.

Type: Ship (hazmat cat C). MMSI: 367184740.

Date/timePositionNaut miles runAvg speedWind from/ knotsBaromVisibWave heightAir tempDewpointWater temp
2014-Sep-28 19:31N 40°53' W 073°56'1111.2
2014-Sep-28 18:33N 40°44' W 074°01'1 0.4
2014-Sep-28 15:21N 40°45' W 074°01'0 0.0
2014-Sep-28 14:33N 40°45' W 074°01'0 0.0
2014-Sep-28 13:33N 40°45' W 074°01'0 0.0
2014-Sep-28 12:33N 40°45' W 074°01'0 0.0
2014-Sep-28 11:30N 40°45' W 074°01'0 0.0
2014-Sep-28 10:33N 40°45' W 074°01'0 0.0
2014-Sep-28 09:33N 40°45' W 074°01'0 0.0
2014-Sep-28 08:33N 40°45' W 074°01'0 0.0
2014-Sep-28 07:33N 40°45' W 074°01'0 0.0
2014-Sep-28 06:33N 40°45' W 074°01'0 0.0
2014-Sep-28 04:33N 40°45' W 074°01'3 2.6
2014-Sep-28 03:33N 40°45' W 073°57'7 7.1
2014-Sep-28 02:33N 40°48' W 073°49'9 8.9
2014-Sep-28 01:33N 40°54' W 073°40'1010.1
2014-Sep-28 00:33N 40°58' W 073°28'1010.1
2014-Sep-27 23:33N 41°01' W 073°15'1110.6
2014-Sep-27 22:33N 41°03' W 073°01'1010.5
2014-Sep-27 21:33N 41°06' W 072°48'1010.0
2014-Sep-27 20:33N 41°09' W 072°35'9 9.3
2014-Sep-27 19:33N 41°11' W 072°23'10 9.9
2014-Sep-27 18:33N 41°13' W 072°10'1111.0
2014-Sep-27 17:33N 41°15' W 071°56'1211.7
2014-Sep-27 16:33N 41°17' W 071°40'1111.4
2014-Sep-27 15:33N 41°22' W 071°27'1110.9
2014-Sep-27 14:33N 41°32' W 071°20'1010.5
2014-Sep-27 13:33N 41°42' W 071°20'7 6.8
2014-Sep-27 12:29N 41°49' W 071°24'0 0.0
2014-Sep-27 11:20N 41°49' W 071°24'0 0.0
2014-Sep-27 10:29N 41°49' W 071°24'0 0.0
2014-Sep-27 09:29N 41°49' W 071°24'0 0.0
2014-Sep-27 08:23N 41°49' W 071°24'0 0.0
2014-Sep-27 07:32N 41°49' W 071°24'0 0.0
2014-Sep-27 06:29N 41°49' W 071°24'0 0.0
2014-Sep-27 05:32N 41°49' W 071°24'0 0.0
2014-Sep-27 04:23N 41°49' W 071°24'0 0.0
2014-Sep-27 03:32N 41°49' W 071°24'0 0.0
2014-Sep-27 02:17N 41°49' W 071°24'0 0.0
2014-Sep-26 23:26N 41°49' W 071°24'0 0.0
2014-Sep-26 22:32N 41°49' W 071°24'0 0.0
2014-Sep-26 18:17N 41°49' W 071°24'3 3.8
2014-Sep-26 17:33N 41°46' W 071°22'7 6.6
2014-Sep-26 16:33N 41°40' W 071°19'2 1.3
2014-Sep-26 15:10N 41°40' W 071°16'0 0.0
2014-Sep-26 14:31N 41°40' W 071°16'0 0.0
2014-Sep-26 13:28N 41°40' W 071°16'0 0.0
2014-Sep-26 12:31N 41°40' W 071°16'0 0.0
2014-Sep-26 11:31N 41°40' W 071°16'0 0.0
2014-Sep-26 10:31N 41°40' W 071°16'0 0.0
2014-Sep-26 09:31N 41°40' W 071°16'0 0.0
2014-Sep-26 08:31N 41°40' W 071°16'0 0.0
2014-Sep-26 07:28N 41°40' W 071°16'0 0.0
2014-Sep-26 06:31N 41°40' W 071°16'0 0.0
2014-Sep-26 05:22N 41°40' W 071°16'0 0.0
2014-Sep-26 04:31N 41°40' W 071°16'0 0.0
2014-Sep-26 02:28N 41°40' W 071°16'0 0.0
2014-Sep-26 01:31N 41°40' W 071°16'0 0.0
2014-Sep-26 00:31N 41°40' W 071°16'0 0.0
2014-Sep-25 23:25N 41°40' W 071°16'0 0.0
2014-Sep-25 22:19N 41°40' W 071°16'0 0.0
2014-Sep-25 21:28N 41°40' W 071°16'0 0.0
2014-Sep-25 20:22N 41°40' W 071°16'0 0.0
2014-Sep-25 19:31N 41°40' W 071°16'0 0.0
2014-Sep-25 18:25N 41°40' W 071°16'0 0.0
2014-Sep-25 17:19N 41°40' W 071°16'0 0.0
2014-Sep-25 16:22N 41°40' W 071°16'0 0.1
2014-Sep-25 15:33N 41°40' W 071°16'9 9.0
2014-Sep-25 14:33N 41°31' W 071°20'7 6.6
2014-Sep-25 13:33N 41°25' W 071°16'10 9.3
2014-Sep-25 12:32N 41°26' W 071°03'9 8.9
2014-Sep-25 11:32N 41°27' W 070°51'10 9.7
2014-Sep-25 10:31N 41°29' W 070°38'3 1.3
2014-Sep-25 08:21N 41°27' W 070°36'0 0.0
2014-Sep-25 07:15N 41°27' W 070°36'0 0.0
2014-Sep-25 06:30N 41°27' W 070°36'0 0.0
2014-Sep-25 05:30N 41°27' W 070°36'0 0.0
2014-Sep-25 04:33N 41°27' W 070°36'0 0.0
2014-Sep-25 03:33N 41°27' W 070°36'0 0.0
2014-Sep-25 02:30N 41°27' W 070°36'0 0.0
2014-Sep-24 03:27N 41°27' W 070°36'0 0.0
2014-Sep-24 02:33N 41°27' W 070°36'22 1.5
2014-Sep-23 11:33N 41°21' W 070°07'1010.3
2014-Sep-23 10:33N 41°27' W 070°18'1211.8
2014-Sep-23 09:30N 41°29' W 070°34'1010.6
2014-Sep-23 08:33N 41°26' W 070°47'9 8.8
2014-Sep-23 07:29N 41°35' W 070°53'0 0.0
2014-Sep-22 11:33N 41°34' W 070°52'1010.0
2014-Sep-22 10:33N 41°26' W 071°01'9 9.3
2014-Sep-22 09:33N 41°27' W 071°13'1010.3
2014-Sep-22 08:33N 41°37' W 071°13'6 6.4
2014-Sep-22 07:33N 41°33' W 071°19'5 1.5
2014-Sep-22 04:21N 41°29' W 071°20'0 0.0
2014-Sep-22 03:27N 41°29' W 071°20'0 0.0
2014-Sep-22 02:33N 41°29' W 071°20'0 0.0
2014-Sep-22 01:33N 41°29' W 071°20'0 0.0
2014-Sep-22 00:33N 41°29' W 071°20'0 0.0
2014-Sep-21 23:33N 41°29' W 071°20'0 0.0
2014-Sep-21 22:33N 41°29' W 071°20'0 0.0
2014-Sep-21 21:33N 41°29' W 071°20'0 0.0
2014-Sep-21 20:21N 41°29' W 071°20'0 0.0
2014-Sep-21 13:21N 41°29' W 071°20'0 0.0
2014-Sep-21 12:30N 41°29' W 071°20'0 0.0
2014-Sep-21 11:27N 41°29' W 071°20'0 0.0
2014-Sep-21 10:24N 41°29' W 071°20'0 0.0
2014-Sep-21 09:30N 41°29' W 071°20'0 0.0
2014-Sep-21 06:27N 41°29' W 071°20'0 0.0
2014-Sep-21 05:33N 41°29' W 071°20'0 0.0
2014-Sep-21 04:33N 41°29' W 071°20'0 0.0
2014-Sep-21 03:06N 41°29' W 071°20'0 0.0
2014-Sep-21 02:09N 41°29' W 071°20'0 0.0
2014-Sep-21 01:30N 41°29' W 071°20'0 0.0
2014-Sep-21 00:33N 41°29' W 071°20'0 0.0
2014-Sep-20 23:33N 41°29' W 071°20'0 0.0
2014-Sep-20 22:24N 41°29' W 071°20'0 0.0
2014-Sep-20 20:27N 41°29' W 071°20'0 0.0
2014-Sep-20 19:32N 41°29' W 071°20'7 6.9
2014-Sep-20 18:33N 41°35' W 071°18'9 9.5
2014-Sep-20 17:33N 41°44' W 071°22'5 1.1
2014-Sep-20 13:08N 41°49' W 071°24'0 0.0
2014-Sep-20 12:32N 41°49' W 071°24'0 0.0
2014-Sep-20 08:23N 41°49' W 071°24'0 0.0
2014-Sep-20 07:05N 41°49' W 071°24'0 0.0
2014-Sep-20 05:05N 41°49' W 071°24'0 0.0
2014-Sep-20 03:14N 41°49' W 071°24'0 0.0
2014-Sep-20 02:29N 41°49' W 071°24'0 0.0
2014-Sep-20 01:29N 41°49' W 071°24'0 0.0
2014-Sep-20 00:32N 41°49' W 071°24'0 0.0
2014-Sep-19 23:23N 41°49' W 071°24'0 0.0
2014-Sep-19 22:33N 41°49' W 071°24'9 9.1
2014-Sep-19 21:33N 41°41' W 071°19'2 1.9
2014-Sep-19 20:30N 41°40' W 071°16'0 0.0
2014-Sep-19 19:30N 41°40' W 071°16'0 0.0
2014-Sep-19 18:24N 41°40' W 071°16'0 0.0
2014-Sep-19 17:24N 41°40' W 071°16'0 0.0
2014-Sep-19 16:24N 41°40' W 071°16'0 0.0
2014-Sep-19 15:30N 41°40' W 071°16'1 1.3
2014-Sep-19 14:33N 41°39' W 071°16'10 9.9
2014-Sep-19 13:33N 41°29' W 071°20'1 0.5
2014-Sep-19 12:28N 41°29' W 071°20'0 0.0
2014-Sep-19 11:22N 41°29' W 071°20'0 0.0
2014-Sep-19 10:22N 41°29' W 071°20'0 0.0
2014-Sep-19 09:28N 41°29' W 071°20'0 0.0
2014-Sep-19 08:28N 41°29' W 071°20'0 0.0
2014-Sep-19 07:31N 41°29' W 071°20'0 0.0
2014-Sep-19 06:31N 41°29' W 071°20'0 0.0
2014-Sep-19 05:31N 41°29' W 071°20'0 0.0
2014-Sep-19 04:31N 41°29' W 071°20'0 0.0
2014-Sep-19 03:25N 41°29' W 071°20'0 0.0
2014-Sep-19 02:31N 41°29' W 071°20'0 0.0
2014-Sep-19 01:28N 41°29' W 071°20'0 0.0
2014-Sep-19 00:31N 41°29' W 071°20'0 0.0
2014-Sep-18 23:31N 41°29' W 071°20'0 0.0
2014-Sep-18 22:28N 41°29' W 071°20'0 0.0
2014-Sep-18 21:31N 41°29' W 071°20'0 0.0
2014-Sep-18 20:31N 41°29' W 071°20'0 0.0
2014-Sep-18 19:31N 41°29' W 071°20'  

Dump ship's entire track history